Airfield :
LOGIN :

Register | Disclaimer

   EN    FR    IT 

 










Legend :    VFR   Marginal VFR   IFR   Intensive IFR   Very Intensive IFR
Visi :
Ceiling :
>= 8 km
>= 3000ft
5 to 8 km
1000 to 3000 ft
1500m to 5 km
500 to 1000 ft
800 to 1500m
200 to 500 ft
< 800m
< 200 ft
Symbols :   Thunderstorms  Fog  Heavy snow  Heavy precipitations  Wind > 20 kt
SIGMETs :     Misc.  Thunderstorms  Icing  Turbulence  Mountain Waves  Volcanic Ashes






- Airport Elevation : 425 ft
- IATA code : DTM


EDLW - Dortmund

CURRENT METAR :
  • 220420Z 03007KT 9999 SCT009 BKN015 OVC024 12/11 Q1015

EXPIRED METARs :
  • 220350Z 03004KT 9999 FEW009 BKN020 12/10 Q1014
  • 220320Z 02006KT 340V050 9999 SCT010 BKN015 12/10 Q1014
  • 220250Z AUTO 02005KT 340V050 9999 // BKN010/// OVC017/// 12/10 Q1014
  • 220220Z AUTO 02004KT 360V060 9999 // FEW010/// OVC016/// 12/10 Q1014
  • 220150Z AUTO 36005KT 300V030 9999 // FEW008/// OVC016/// 12/11 Q1014

TAF TAF EDLW
Valid from the 22 at 04:00 until the 23 at 00:00 UTC


220325Z 2204/2224 03005KT 9999 SCT010 OVC015
PROB30
TEMPO 2204/2209 BKN006
PROB30
TEMPO 2214/2221 SHRA BKN020CB



MET'MAP, your aeronautical weather chart ! - Copyright ORBIFLY December 2007 - Disclaimer

ORBIFLY MET'MAP TEAM :

Programming & Development : Alexandra Zaïnal
Concept & original design : Baudouin d'Aumeries
Assistance for programming : Marc-Olivier Méhu
Technical & hardware support : Manuel Goepfert

Contact : metmap@orbifly.com




SOURCES & CREDITS :

   NOAA